sensor_id;sensor_type;location;lat;lon;timestamp;temperature;humidity
22430;DHT22;11382;48.086;11.632;2024-03-02T00:00:50;5.90;99.90
22430;DHT22;11382;48.086;11.632;2024-03-02T00:03:19;5.90;99.90
22430;DHT22;11382;48.086;11.632;2024-03-02T00:05:51;5.90;99.90
22430;DHT22;11382;48.086;11.632;2024-03-02T00:08:23;5.90;99.90
22430;DHT22;11382;48.086;11.632;2024-03-02T00:10:57;5.90;99.90
22430;DHT22;11382;48.086;11.632;2024-03-02T00:13:25;5.90;99.90
22430;DHT22;11382;48.086;11.632;2024-03-02T00:15:55;5.90;99.90
22430;DHT22;11382;48.086;11.632;2024-03-02T00:18:26;6.00;99.90
22430;DHT22;11382;48.086;11.632;2024-03-02T00:20:56;5.90;99.90
22430;DHT22;11382;48.086;11.632;2024-03-02T00:23:28;5.90;99.90
22430;DHT22;11382;48.086;11.632;2024-03-02T00:25:59;6.00;99.90
22430;DHT22;11382;48.086;11.632;2024-03-02T00:28:30;6.00;99.90
22430;DHT22;11382;48.086;11.632;2024-03-02T00:31:03;6.00;99.90
22430;DHT22;11382;48.086;11.632;2024-03-02T00:33:33;5.90;99.90
22430;DHT22;11382;48.086;11.632;2024-03-02T00:36:03;5.90;99.90
22430;DHT22;11382;48.086;11.632;2024-03-02T00:38:32;5.90;99.90
22430;DHT22;11382;48.086;11.632;2024-03-02T00:41:05;5.90;99.90
22430;DHT22;11382;48.086;11.632;2024-03-02T00:43:42;6.00;99.90
22430;DHT22;11382;48.086;11.632;2024-03-02T00:46:16;5.90;99.90
22430;DHT22;11382;48.086;11.632;2024-03-02T00:48:51;5.90;99.90
22430;DHT22;11382;48.086;11.632;2024-03-02T00:51:22;6.00;99.90
22430;DHT22;11382;48.086;11.632;2024-03-02T00:53:51;6.00;99.90
22430;DHT22;11382;48.086;11.632;2024-03-02T00:56:23;6.00;99.90
22430;DHT22;11382;48.086;11.632;2024-03-02T00:58:52;5.90;99.90
22430;DHT22;11382;48.086;11.632;2024-03-02T01:01:21;5.90;99.90
22430;DHT22;11382;48.086;11.632;2024-03-02T01:03:50;5.90;99.90
22430;DHT22;11382;48.086;11.632;2024-03-02T01:06:18;5.90;99.90
22430;DHT22;11382;48.086;11.632;2024-03-02T01:08:47;5.80;99.90
22430;DHT22;11382;48.086;11.632;2024-03-02T01:11:19;5.80;99.90
22430;DHT22;11382;48.086;11.632;2024-03-02T01:13:51;5.90;99.90
22430;DHT22;11382;48.086;11.632;2024-03-02T01:16:20;5.90;99.90
22430;DHT22;11382;48.086;11.632;2024-03-02T01:18:48;5.90;99.90
22430;DHT22;11382;48.086;11.632;2024-03-02T01:21:16;5.80;99.90
22430;DHT22;11382;48.086;11.632;2024-03-02T01:23:44;5.90;99.90
22430;DHT22;11382;48.086;11.632;2024-03-02T01:26:13;5.90;99.90
22430;DHT22;11382;48.086;11.632;2024-03-02T01:28:41;5.90;99.90
22430;DHT22;11382;48.086;11.632;2024-03-02T01:31:10;6.00;99.90
22430;DHT22;11382;48.086;11.632;2024-03-02T01:33:38;6.00;99.90
22430;DHT22;11382;48.086;11.632;2024-03-02T01:36:06;6.00;99.90
22430;DHT22;11382;48.086;11.632;2024-03-02T01:38:35;6.00;99.90
22430;DHT22;11382;48.086;11.632;2024-03-02T01:41:03;6.00;99.90
22430;DHT22;11382;48.086;11.632;2024-03-02T01:43:31;6.00;99.90
22430;DHT22;11382;48.086;11.632;2024-03-02T01:46:00;6.00;99.90
22430;DHT22;11382;48.086;11.632;2024-03-02T01:48:29;6.10;99.90
22430;DHT22;11382;48.086;11.632;2024-03-02T01:50:59;6.10;99.90
22430;DHT22;11382;48.086;11.632;2024-03-02T01:53:28;6.10;99.90
22430;DHT22;11382;48.086;11.632;2024-03-02T01:55:58;6.20;99.90
22430;DHT22;11382;48.086;11.632;2024-03-02T01:58:28;6.10;99.90
22430;DHT22;11382;48.086;11.632;2024-03-02T02:00:56;6.20;99.90
22430;DHT22;11382;48.086;11.632;2024-03-02T02:03:24;6.00;99.90
22430;DHT22;11382;48.086;11.632;2024-03-02T02:05:53;6.00;99.90
22430;DHT22;11382;48.086;11.632;2024-03-02T02:08:22;6.00;99.90
22430;DHT22;11382;48.086;11.632;2024-03-02T02:10:50;6.10;99.90
22430;DHT22;11382;48.086;11.632;2024-03-02T02:13:18;6.00;99.90
22430;DHT22;11382;48.086;11.632;2024-03-02T02:15:46;6.00;99.90
22430;DHT22;11382;48.086;11.632;2024-03-02T02:18:14;6.00;99.90
22430;DHT22;11382;48.086;11.632;2024-03-02T02:20:42;5.90;99.90
22430;DHT22;11382;48.086;11.632;2024-03-02T02:23:12;6.00;99.90
22430;DHT22;11382;48.086;11.632;2024-03-02T02:25:40;5.80;99.90
22430;DHT22;11382;48.086;11.632;2024-03-02T02:28:08;5.90;99.90
22430;DHT22;11382;48.086;11.632;2024-03-02T02:30:36;5.90;99.90
22430;DHT22;11382;48.086;11.632;2024-03-02T02:33:05;5.80;99.90
22430;DHT22;11382;48.086;11.632;2024-03-02T02:35:33;5.80;99.90
22430;DHT22;11382;48.086;11.632;2024-03-02T02:38:02;5.80;99.90
22430;DHT22;11382;48.086;11.632;2024-03-02T02:40:32;5.80;99.90
22430;DHT22;11382;48.086;11.632;2024-03-02T02:43:00;5.80;99.90
22430;DHT22;11382;48.086;11.632;2024-03-02T02:45:28;5.70;99.90
22430;DHT22;11382;48.086;11.632;2024-03-02T02:47:57;5.70;99.90
22430;DHT22;11382;48.086;11.632;2024-03-02T02:50:25;5.80;99.90
22430;DHT22;11382;48.086;11.632;2024-03-02T02:52:53;5.80;99.90
22430;DHT22;11382;48.086;11.632;2024-03-02T02:55:21;5.80;99.90
22430;DHT22;11382;48.086;11.632;2024-03-02T02:57:51;5.80;99.90
22430;DHT22;11382;48.086;11.632;2024-03-02T03:00:19;5.90;99.90
22430;DHT22;11382;48.086;11.632;2024-03-02T03:02:49;5.90;99.90
22430;DHT22;11382;48.086;11.632;2024-03-02T03:05:18;6.00;99.90
22430;DHT22;11382;48.086;11.632;2024-03-02T03:07:46;6.10;99.90
22430;DHT22;11382;48.086;11.632;2024-03-02T03:10:17;6.00;99.90
22430;DHT22;11382;48.086;11.632;2024-03-02T03:12:45;6.10;99.90
22430;DHT22;11382;48.086;11.632;2024-03-02T03:15:17;6.10;99.90
22430;DHT22;11382;48.086;11.632;2024-03-02T03:17:45;6.10;99.90
22430;DHT22;11382;48.086;11.632;2024-03-02T03:20:14;6.20;99.90
22430;DHT22;11382;48.086;11.632;2024-03-02T03:22:43;6.20;99.90
22430;DHT22;11382;48.086;11.632;2024-03-02T03:25:11;6.20;99.90
22430;DHT22;11382;48.086;11.632;2024-03-02T03:27:39;6.20;99.90
22430;DHT22;11382;48.086;11.632;2024-03-02T03:30:09;6.20;99.90
22430;DHT22;11382;48.086;11.632;2024-03-02T03:32:39;6.20;99.90
22430;DHT22;11382;48.086;11.632;2024-03-02T03:35:07;6.30;99.90
22430;DHT22;11382;48.086;11.632;2024-03-02T03:37:36;6.30;99.90
22430;DHT22;11382;48.086;11.632;2024-03-02T03:40:05;6.40;99.90
22430;DHT22;11382;48.086;11.632;2024-03-02T03:42:37;6.30;99.90
22430;DHT22;11382;48.086;11.632;2024-03-02T03:45:07;6.20;99.90
22430;DHT22;11382;48.086;11.632;2024-03-02T03:47:35;6.20;99.90
22430;DHT22;11382;48.086;11.632;2024-03-02T03:50:05;6.10;99.90
22430;DHT22;11382;48.086;11.632;2024-03-02T03:52:34;6.20;99.90
22430;DHT22;11382;48.086;11.632;2024-03-02T03:55:03;6.20;99.90
22430;DHT22;11382;48.086;11.632;2024-03-02T03:57:32;6.10;99.90
22430;DHT22;11382;48.086;11.632;2024-03-02T04:00:00;6.20;99.90
22430;DHT22;11382;48.086;11.632;2024-03-02T04:02:37;6.20;99.90
22430;DHT22;11382;48.086;11.632;2024-03-02T04:05:08;6.10;99.90
22430;DHT22;11382;48.086;11.632;2024-03-02T04:07:38;6.20;99.90
22430;DHT22;11382;48.086;11.632;2024-03-02T04:10:08;6.30;99.90
22430;DHT22;11382;48.086;11.632;2024-03-02T04:12:37;6.30;99.90
22430;DHT22;11382;48.086;11.632;2024-03-02T04:15:05;6.30;99.90
22430;DHT22;11382;48.086;11.632;2024-03-02T04:17:34;6.20;99.90
22430;DHT22;11382;48.086;11.632;2024-03-02T04:20:03;6.30;99.90
22430;DHT22;11382;48.086;11.632;2024-03-02T04:22:34;6.20;99.90
22430;DHT22;11382;48.086;11.632;2024-03-02T04:25:03;6.30;99.90
22430;DHT22;11382;48.086;11.632;2024-03-02T04:27:34;6.20;99.90
22430;DHT22;11382;48.086;11.632;2024-03-02T04:30:03;6.30;99.90
22430;DHT22;11382;48.086;11.632;2024-03-02T04:32:32;6.20;99.90
22430;DHT22;11382;48.086;11.632;2024-03-02T04:35:00;6.20;99.90
22430;DHT22;11382;48.086;11.632;2024-03-02T04:37:29;6.30;99.90
22430;DHT22;11382;48.086;11.632;2024-03-02T04:39:59;6.30;99.90
22430;DHT22;11382;48.086;11.632;2024-03-02T04:42:27;6.40;99.90
22430;DHT22;11382;48.086;11.632;2024-03-02T04:44:55;6.40;99.90
22430;DHT22;11382;48.086;11.632;2024-03-02T04:47:23;6.30;99.90
22430;DHT22;11382;48.086;11.632;2024-03-02T04:49:51;6.30;99.90
22430;DHT22;11382;48.086;11.632;2024-03-02T04:52:19;6.20;99.90
22430;DHT22;11382;48.086;11.632;2024-03-02T04:54:47;6.20;99.90
22430;DHT22;11382;48.086;11.632;2024-03-02T04:57:35;6.30;99.90
22430;DHT22;11382;48.086;11.632;2024-03-02T05:00:03;6.30;99.90
22430;DHT22;11382;48.086;11.632;2024-03-02T05:02:34;6.20;99.90
22430;DHT22;11382;48.086;11.632;2024-03-02T05:05:02;6.20;99.90
22430;DHT22;11382;48.086;11.632;2024-03-02T05:07:30;6.20;99.90
22430;DHT22;11382;48.086;11.632;2024-03-02T05:09:58;6.20;99.90
22430;DHT22;11382;48.086;11.632;2024-03-02T05:12:26;6.10;99.90
22430;DHT22;11382;48.086;11.632;2024-03-02T05:15:18;6.20;99.90
22430;DHT22;11382;48.086;11.632;2024-03-02T05:17:46;6.10;99.90
22430;DHT22;11382;48.086;11.632;2024-03-02T05:20:14;6.10;99.90
22430;DHT22;11382;48.086;11.632;2024-03-02T05:22:42;6.20;99.90
22430;DHT22;11382;48.086;11.632;2024-03-02T05:25:11;6.20;99.90
22430;DHT22;11382;48.086;11.632;2024-03-02T05:27:39;6.20;99.90
22430;DHT22;11382;48.086;11.632;2024-03-02T05:30:09;6.20;99.90
22430;DHT22;11382;48.086;11.632;2024-03-02T05:32:39;6.20;99.90
22430;DHT22;11382;48.086;11.632;2024-03-02T05:35:07;6.20;99.90
22430;DHT22;11382;48.086;11.632;2024-03-02T05:37:38;6.20;99.90
22430;DHT22;11382;48.086;11.632;2024-03-02T05:40:07;6.20;99.90
22430;DHT22;11382;48.086;11.632;2024-03-02T05:42:35;6.20;99.90
22430;DHT22;11382;48.086;11.632;2024-03-02T05:45:04;6.20;99.90
22430;DHT22;11382;48.086;11.632;2024-03-02T05:47:32;6.20;99.90
22430;DHT22;11382;48.086;11.632;2024-03-02T05:50:02;6.20;99.90
22430;DHT22;11382;48.086;11.632;2024-03-02T05:52:31;6.10;99.90
22430;DHT22;11382;48.086;11.632;2024-03-02T05:54:59;6.20;99.90
22430;DHT22;11382;48.086;11.632;2024-03-02T05:57:27;6.20;99.90
22430;DHT22;11382;48.086;11.632;2024-03-02T06:00:12;6.30;99.90
22430;DHT22;11382;48.086;11.632;2024-03-02T06:02:43;6.20;99.90
22430;DHT22;11382;48.086;11.632;2024-03-02T06:05:13;6.10;99.90
22430;DHT22;11382;48.086;11.632;2024-03-02T06:07:42;6.10;99.90
22430;DHT22;11382;48.086;11.632;2024-03-02T06:10:10;6.20;99.90
22430;DHT22;11382;48.086;11.632;2024-03-02T06:12:41;6.30;99.90
22430;DHT22;11382;48.086;11.632;2024-03-02T06:15:09;6.40;99.90
22430;DHT22;11382;48.086;11.632;2024-03-02T06:17:42;6.40;99.90
22430;DHT22;11382;48.086;11.632;2024-03-02T06:20:22;6.30;99.90
22430;DHT22;11382;48.086;11.632;2024-03-02T06:22:50;6.20;99.90
22430;DHT22;11382;48.086;11.632;2024-03-02T06:25:18;6.40;99.90
22430;DHT22;11382;48.086;11.632;2024-03-02T06:27:46;6.50;99.90
22430;DHT22;11382;48.086;11.632;2024-03-02T06:30:15;6.60;99.90
22430;DHT22;11382;48.086;11.632;2024-03-02T06:32:43;6.70;99.90
22430;DHT22;11382;48.086;11.632;2024-03-02T06:35:11;6.80;99.90
22430;DHT22;11382;48.086;11.632;2024-03-02T06:37:41;6.80;99.90
22430;DHT22;11382;48.086;11.632;2024-03-02T06:40:09;6.80;99.90
22430;DHT22;11382;48.086;11.632;2024-03-02T06:42:37;6.90;99.90
22430;DHT22;11382;48.086;11.632;2024-03-02T06:45:06;7.00;99.90
22430;DHT22;11382;48.086;11.632;2024-03-02T06:47:34;7.00;99.90
22430;DHT22;11382;48.086;11.632;2024-03-02T06:50:03;7.10;99.90
22430;DHT22;11382;48.086;11.632;2024-03-02T06:52:31;7.00;99.90
22430;DHT22;11382;48.086;11.632;2024-03-02T06:55:01;7.10;99.90
22430;DHT22;11382;48.086;11.632;2024-03-02T06:57:29;7.20;99.90
22430;DHT22;11382;48.086;11.632;2024-03-02T06:59:57;7.20;99.90
22430;DHT22;11382;48.086;11.632;2024-03-02T07:02:26;7.40;99.90
22430;DHT22;11382;48.086;11.632;2024-03-02T07:04:54;7.50;99.90
22430;DHT22;11382;48.086;11.632;2024-03-02T07:07:22;7.60;99.90
22430;DHT22;11382;48.086;11.632;2024-03-02T07:09:50;7.80;99.90
22430;DHT22;11382;48.086;11.632;2024-03-02T07:12:20;7.70;99.90
22430;DHT22;11382;48.086;11.632;2024-03-02T07:14:48;7.80;99.90
22430;DHT22;11382;48.086;11.632;2024-03-02T07:17:38;7.80;99.90
22430;DHT22;11382;48.086;11.632;2024-03-02T07:20:06;8.00;99.90
22430;DHT22;11382;48.086;11.632;2024-03-02T07:22:34;7.80;99.90
22430;DHT22;11382;48.086;11.632;2024-03-02T07:25:07;7.80;99.90
22430;DHT22;11382;48.086;11.632;2024-03-02T07:27:57;7.90;99.90
22430;DHT22;11382;48.086;11.632;2024-03-02T07:30:25;8.20;99.90
22430;DHT22;11382;48.086;11.632;2024-03-02T07:32:53;8.30;99.90
22430;DHT22;11382;48.086;11.632;2024-03-02T07:35:21;8.30;99.90
22430;DHT22;11382;48.086;11.632;2024-03-02T07:37:53;8.30;99.90
22430;DHT22;11382;48.086;11.632;2024-03-02T07:40:22;8.60;99.90
22430;DHT22;11382;48.086;11.632;2024-03-02T07:42:50;8.80;99.90
22430;DHT22;11382;48.086;11.632;2024-03-02T07:45:19;9.10;99.90
22430;DHT22;11382;48.086;11.632;2024-03-02T07:47:47;9.50;99.90
22430;DHT22;11382;48.086;11.632;2024-03-02T07:50:17;9.80;99.90
22430;DHT22;11382;48.086;11.632;2024-03-02T07:52:45;10.40;99.90
22430;DHT22;11382;48.086;11.632;2024-03-02T07:55:13;11.00;99.90
22430;DHT22;11382;48.086;11.632;2024-03-02T07:57:41;11.00;99.90
22430;DHT22;11382;48.086;11.632;2024-03-02T08:00:10;11.10;99.90
22430;DHT22;11382;48.086;11.632;2024-03-02T08:02:40;11.30;99.90
22430;DHT22;11382;48.086;11.632;2024-03-02T08:05:09;11.60;99.90
22430;DHT22;11382;48.086;11.632;2024-03-02T08:07:37;11.80;99.90
22430;DHT22;11382;48.086;11.632;2024-03-02T08:10:06;12.10;99.90
22430;DHT22;11382;48.086;11.632;2024-03-02T08:12:34;12.30;99.90
22430;DHT22;11382;48.086;11.632;2024-03-02T08:15:03;12.90;99.90
22430;DHT22;11382;48.086;11.632;2024-03-02T08:17:32;13.70;99.90
22430;DHT22;11382;48.086;11.632;2024-03-02T08:20:06;14.50;99.90
22430;DHT22;11382;48.086;11.632;2024-03-02T08:22:34;14.80;99.90
22430;DHT22;11382;48.086;11.632;2024-03-02T08:25:03;14.40;99.90
22430;DHT22;11382;48.086;11.632;2024-03-02T08:27:32;14.30;99.90
22430;DHT22;11382;48.086;11.632;2024-03-02T08:30:00;14.40;99.90
22430;DHT22;11382;48.086;11.632;2024-03-02T08:32:30;14.10;99.90
22430;DHT22;11382;48.086;11.632;2024-03-02T08:34:58;13.50;99.90
22430;DHT22;11382;48.086;11.632;2024-03-02T08:37:28;13.20;99.90
22430;DHT22;11382;48.086;11.632;2024-03-02T08:39:56;13.40;99.90
22430;DHT22;11382;48.086;11.632;2024-03-02T08:42:24;13.00;99.90
22430;DHT22;11382;48.086;11.632;2024-03-02T08:44:52;13.90;99.90
22430;DHT22;11382;48.086;11.632;2024-03-02T08:47:20;14.40;99.90
22430;DHT22;11382;48.086;11.632;2024-03-02T08:49:48;14.60;99.90
22430;DHT22;11382;48.086;11.632;2024-03-02T08:52:16;14.10;99.90
22430;DHT22;11382;48.086;11.632;2024-03-02T08:54:46;14.40;99.90
22430;DHT22;11382;48.086;11.632;2024-03-02T08:57:14;14.30;99.90
22430;DHT22;11382;48.086;11.632;2024-03-02T08:59:42;14.90;99.90
22430;DHT22;11382;48.086;11.632;2024-03-02T09:02:10;16.60;99.90
22430;DHT22;11382;48.086;11.632;2024-03-02T09:04:39;18.00;99.90
22430;DHT22;11382;48.086;11.632;2024-03-02T09:07:07;19.50;99.90
22430;DHT22;11382;48.086;11.632;2024-03-02T09:09:35;19.80;99.00
22430;DHT22;11382;48.086;11.632;2024-03-02T09:12:05;20.80;96.30
22430;DHT22;11382;48.086;11.632;2024-03-02T09:14:33;21.20;93.90
22430;DHT22;11382;48.086;11.632;2024-03-02T09:17:01;18.70;95.80
22430;DHT22;11382;48.086;11.632;2024-03-02T09:19:30;19.40;95.60
22430;DHT22;11382;48.086;11.632;2024-03-02T09:21:58;19.10;96.00
22430;DHT22;11382;48.086;11.632;2024-03-02T09:24:26;17.90;95.80
22430;DHT22;11382;48.086;11.632;2024-03-02T09:26:54;18.30;98.00
22430;DHT22;11382;48.086;11.632;2024-03-02T09:29:24;18.30;96.50
22430;DHT22;11382;48.086;11.632;2024-03-02T09:31:52;17.50;98.30
22430;DHT22;11382;48.086;11.632;2024-03-02T09:34:20;17.90;98.50
22430;DHT22;11382;48.086;11.632;2024-03-02T09:36:50;18.30;97.10
22430;DHT22;11382;48.086;11.632;2024-03-02T09:39:19;19.20;96.20
22430;DHT22;11382;48.086;11.632;2024-03-02T09:41:47;18.80;95.80
22430;DHT22;11382;48.086;11.632;2024-03-02T09:44:16;19.80;94.50
22430;DHT22;11382;48.086;11.632;2024-03-02T09:46:48;20.30;94.00
22430;DHT22;11382;48.086;11.632;2024-03-02T09:49:17;19.70;94.30
22430;DHT22;11382;48.086;11.632;2024-03-02T09:51:47;18.20;95.00
22430;DHT22;11382;48.086;11.632;2024-03-02T09:54:15;18.20;96.70
22430;DHT22;11382;48.086;11.632;2024-03-02T09:56:49;20.20;93.60
22430;DHT22;11382;48.086;11.632;2024-03-02T09:59:18;20.00;94.30
22430;DHT22;11382;48.086;11.632;2024-03-02T10:01:59;20.00;93.50
22430;DHT22;11382;48.086;11.632;2024-03-02T10:04:28;20.20;93.60
22430;DHT22;11382;48.086;11.632;2024-03-02T10:07:14;21.20;92.00
22430;DHT22;11382;48.086;11.632;2024-03-02T10:09:43;19.10;93.80
22430;DHT22;11382;48.086;11.632;2024-03-02T10:12:13;19.00;94.50
22430;DHT22;11382;48.086;11.632;2024-03-02T10:14:42;21.20;93.30
22430;DHT22;11382;48.086;11.632;2024-03-02T10:17:12;22.80;89.90
22430;DHT22;11382;48.086;11.632;2024-03-02T10:19:40;23.10;86.60
22430;DHT22;11382;48.086;11.632;2024-03-02T10:22:09;23.20;82.00
22430;DHT22;11382;48.086;11.632;2024-03-02T10:24:39;21.70;88.10
22430;DHT22;11382;48.086;11.632;2024-03-02T10:27:09;21.20;85.70
22430;DHT22;11382;48.086;11.632;2024-03-02T10:29:38;21.10;86.30
22430;DHT22;11382;48.086;11.632;2024-03-02T10:32:09;21.50;86.80
22430;DHT22;11382;48.086;11.632;2024-03-02T10:34:40;21.20;88.60
22430;DHT22;11382;48.086;11.632;2024-03-02T10:37:08;21.90;85.10
22430;DHT22;11382;48.086;11.632;2024-03-02T10:39:36;21.60;85.30
22430;DHT22;11382;48.086;11.632;2024-03-02T10:42:07;22.30;82.50
22430;DHT22;11382;48.086;11.632;2024-03-02T10:44:35;22.00;83.30
22430;DHT22;11382;48.086;11.632;2024-03-02T10:47:04;22.90;81.80
22430;DHT22;11382;48.086;11.632;2024-03-02T10:49:33;23.90;77.60
22430;DHT22;11382;48.086;11.632;2024-03-02T10:52:03;25.70;75.20
22430;DHT22;11382;48.086;11.632;2024-03-02T10:54:33;23.60;76.10
22430;DHT22;11382;48.086;11.632;2024-03-02T10:57:07;24.20;75.40
22430;DHT22;11382;48.086;11.632;2024-03-02T10:59:40;21.50;77.00
22430;DHT22;11382;48.086;11.632;2024-03-02T11:02:12;21.90;80.00
22430;DHT22;11382;48.086;11.632;2024-03-02T11:04:42;22.90;77.20
22430;DHT22;11382;48.086;11.632;2024-03-02T11:07:12;23.30;76.20
22430;DHT22;11382;48.086;11.632;2024-03-02T11:09:49;24.40;73.50
22430;DHT22;11382;48.086;11.632;2024-03-02T11:12:23;22.00;76.50
22430;DHT22;11382;48.086;11.632;2024-03-02T11:14:56;22.20;78.10
22430;DHT22;11382;48.086;11.632;2024-03-02T11:17:25;22.10;77.90
22430;DHT22;11382;48.086;11.632;2024-03-02T11:19:53;21.60;79.40
22430;DHT22;11382;48.086;11.632;2024-03-02T11:22:23;22.00;78.50
22430;DHT22;11382;48.086;11.632;2024-03-02T11:24:52;22.50;78.50
22430;DHT22;11382;48.086;11.632;2024-03-02T11:30:53;23.80;74.00
22430;DHT22;11382;48.086;11.632;2024-03-02T11:33:25;24.30;71.50
22430;DHT22;11382;48.086;11.632;2024-03-02T11:35:57;22.30;77.30
22430;DHT22;11382;48.086;11.632;2024-03-02T11:38:34;23.20;74.00
22430;DHT22;11382;48.086;11.632;2024-03-02T11:41:05;23.00;74.50
22430;DHT22;11382;48.086;11.632;2024-03-02T11:43:37;21.60;76.50
22430;DHT22;11382;48.086;11.632;2024-03-02T11:46:06;22.40;75.70
22430;DHT22;11382;48.086;11.632;2024-03-02T11:48:35;21.70;75.60
22430;DHT22;11382;48.086;11.632;2024-03-02T11:51:04;22.00;75.40
22430;DHT22;11382;48.086;11.632;2024-03-02T11:53:35;22.60;74.60
22430;DHT22;11382;48.086;11.632;2024-03-02T11:56:03;22.70;72.30
22430;DHT22;11382;48.086;11.632;2024-03-02T11:58:36;20.30;76.60
22430;DHT22;11382;48.086;11.632;2024-03-02T12:01:05;20.80;78.40
22430;DHT22;11382;48.086;11.632;2024-03-02T12:03:34;21.40;79.90
22430;DHT22;11382;48.086;11.632;2024-03-02T12:06:03;22.70;74.50
22430;DHT22;11382;48.086;11.632;2024-03-02T12:08:34;22.70;75.30
22430;DHT22;11382;48.086;11.632;2024-03-02T12:11:03;20.60;77.80
22430;DHT22;11382;48.086;11.632;2024-03-02T12:13:33;19.20;81.80
22430;DHT22;11382;48.086;11.632;2024-03-02T12:16:01;18.20;87.00
22430;DHT22;11382;48.086;11.632;2024-03-02T12:18:29;16.70;90.50
22430;DHT22;11382;48.086;11.632;2024-03-02T12:20:57;16.90;91.70
22430;DHT22;11382;48.086;11.632;2024-03-02T12:23:26;16.60;92.00
22430;DHT22;11382;48.086;11.632;2024-03-02T12:25:55;16.10;93.40
22430;DHT22;11382;48.086;11.632;2024-03-02T12:28:23;15.80;94.00
22430;DHT22;11382;48.086;11.632;2024-03-02T12:30:51;15.50;94.70
22430;DHT22;11382;48.086;11.632;2024-03-02T12:33:20;15.80;94.90
22430;DHT22;11382;48.086;11.632;2024-03-02T12:35:49;15.60;95.10
22430;DHT22;11382;48.086;11.632;2024-03-02T12:38:17;15.60;95.20
22430;DHT22;11382;48.086;11.632;2024-03-02T12:40:48;14.90;96.00
22430;DHT22;11382;48.086;11.632;2024-03-02T12:43:17;14.70;97.30
22430;DHT22;11382;48.086;11.632;2024-03-02T12:45:45;14.60;97.50
22430;DHT22;11382;48.086;11.632;2024-03-02T12:48:14;14.40;98.00
22430;DHT22;11382;48.086;11.632;2024-03-02T12:50:42;14.10;99.30
22430;DHT22;11382;48.086;11.632;2024-03-02T12:53:14;13.90;99.90
22430;DHT22;11382;48.086;11.632;2024-03-02T12:55:44;13.90;99.90
22430;DHT22;11382;48.086;11.632;2024-03-02T12:58:19;13.80;99.90
22430;DHT22;11382;48.086;11.632;2024-03-02T13:00:48;13.90;99.90
22430;DHT22;11382;48.086;11.632;2024-03-02T13:03:18;14.10;99.90
22430;DHT22;11382;48.086;11.632;2024-03-02T13:05:50;14.40;99.90
22430;DHT22;11382;48.086;11.632;2024-03-02T13:08:18;14.10;99.90
22430;DHT22;11382;48.086;11.632;2024-03-02T13:10:46;14.00;99.90
22430;DHT22;11382;48.086;11.632;2024-03-02T13:13:14;13.90;99.90
22430;DHT22;11382;48.086;11.632;2024-03-02T13:15:44;14.20;99.90
22430;DHT22;11382;48.086;11.632;2024-03-02T13:18:12;14.10;99.90
22430;DHT22;11382;48.086;11.632;2024-03-02T13:20:41;14.20;99.90
22430;DHT22;11382;48.086;11.632;2024-03-02T13:23:09;14.30;99.90
22430;DHT22;11382;48.086;11.632;2024-03-02T13:25:39;14.00;99.90
22430;DHT22;11382;48.086;11.632;2024-03-02T13:28:07;14.30;99.90
22430;DHT22;11382;48.086;11.632;2024-03-02T13:30:35;14.30;99.90
22430;DHT22;11382;48.086;11.632;2024-03-02T13:33:05;14.30;99.90
22430;DHT22;11382;48.086;11.632;2024-03-02T13:35:33;14.20;99.90
22430;DHT22;11382;48.086;11.632;2024-03-02T13:38:01;14.10;99.90
22430;DHT22;11382;48.086;11.632;2024-03-02T13:40:29;14.20;99.90
22430;DHT22;11382;48.086;11.632;2024-03-02T13:43:02;14.00;99.90
22430;DHT22;11382;48.086;11.632;2024-03-02T13:45:30;14.20;99.90
22430;DHT22;11382;48.086;11.632;2024-03-02T13:48:00;14.00;99.90
22430;DHT22;11382;48.086;11.632;2024-03-02T13:50:30;14.10;99.90
22430;DHT22;11382;48.086;11.632;2024-03-02T13:52:58;14.00;99.90
22430;DHT22;11382;48.086;11.632;2024-03-02T13:55:26;14.00;99.90
22430;DHT22;11382;48.086;11.632;2024-03-02T13:57:54;13.90;99.90
22430;DHT22;11382;48.086;11.632;2024-03-02T14:00:22;14.10;99.90
22430;DHT22;11382;48.086;11.632;2024-03-02T14:02:50;14.20;99.90
22430;DHT22;11382;48.086;11.632;2024-03-02T14:05:18;13.70;99.90
22430;DHT22;11382;48.086;11.632;2024-03-02T14:07:48;13.80;99.90
22430;DHT22;11382;48.086;11.632;2024-03-02T14:10:16;13.80;99.90
22430;DHT22;11382;48.086;11.632;2024-03-02T14:12:45;14.00;99.90
22430;DHT22;11382;48.086;11.632;2024-03-02T14:15:13;13.70;99.90
22430;DHT22;11382;48.086;11.632;2024-03-02T14:17:44;13.90;99.90
22430;DHT22;11382;48.086;11.632;2024-03-02T14:20:12;13.70;99.90
22430;DHT22;11382;48.086;11.632;2024-03-02T14:22:40;13.80;99.90
22430;DHT22;11382;48.086;11.632;2024-03-02T14:25:10;13.90;99.90
22430;DHT22;11382;48.086;11.632;2024-03-02T14:27:38;13.90;99.90
22430;DHT22;11382;48.086;11.632;2024-03-02T14:30:26;14.00;99.90
22430;DHT22;11382;48.086;11.632;2024-03-02T14:32:54;13.80;99.90
22430;DHT22;11382;48.086;11.632;2024-03-02T14:35:22;13.50;99.90
22430;DHT22;11382;48.086;11.632;2024-03-02T14:37:51;13.30;99.90
22430;DHT22;11382;48.086;11.632;2024-03-02T14:40:21;13.20;99.90
22430;DHT22;11382;48.086;11.632;2024-03-02T14:42:49;13.10;99.90
22430;DHT22;11382;48.086;11.632;2024-03-02T14:45:17;13.30;99.90
22430;DHT22;11382;48.086;11.632;2024-03-02T14:47:45;13.40;99.90
22430;DHT22;11382;48.086;11.632;2024-03-02T14:50:13;13.40;99.90
22430;DHT22;11382;48.086;11.632;2024-03-02T14:52:44;13.30;99.90
22430;DHT22;11382;48.086;11.632;2024-03-02T14:55:12;13.30;99.90
22430;DHT22;11382;48.086;11.632;2024-03-02T14:57:42;13.30;99.90
22430;DHT22;11382;48.086;11.632;2024-03-02T15:00:11;13.40;99.90
22430;DHT22;11382;48.086;11.632;2024-03-02T15:02:39;13.30;99.90
22430;DHT22;11382;48.086;11.632;2024-03-02T15:05:08;13.10;99.90
22430;DHT22;11382;48.086;11.632;2024-03-02T15:07:36;13.10;99.90
22430;DHT22;11382;48.086;11.632;2024-03-02T15:10:06;12.90;99.90
22430;DHT22;11382;48.086;11.632;2024-03-02T15:12:35;13.10;99.90
22430;DHT22;11382;48.086;11.632;2024-03-02T15:15:05;13.20;99.90
22430;DHT22;11382;48.086;11.632;2024-03-02T15:17:33;13.30;99.90
22430;DHT22;11382;48.086;11.632;2024-03-02T15:20:02;13.20;99.90
22430;DHT22;11382;48.086;11.632;2024-03-02T15:22:31;12.90;99.90
22430;DHT22;11382;48.086;11.632;2024-03-02T15:24:59;13.00;99.90
22430;DHT22;11382;48.086;11.632;2024-03-02T15:27:27;13.00;99.90
22430;DHT22;11382;48.086;11.632;2024-03-02T15:29:55;13.00;99.90
22430;DHT22;11382;48.086;11.632;2024-03-02T15:32:25;12.90;99.90
22430;DHT22;11382;48.086;11.632;2024-03-02T15:34:54;13.00;99.90
22430;DHT22;11382;48.086;11.632;2024-03-02T15:37:22;12.90;99.90
22430;DHT22;11382;48.086;11.632;2024-03-02T15:39:50;13.00;99.90